createdAt,value
2022-11-09T00:00:43.051Z,15.05
2022-11-09T00:03:11.331Z,15.04
2022-11-09T00:05:39.361Z,15.05
2022-11-09T00:08:08.082Z,15.09
2022-11-09T00:10:36.026Z,15.07
2022-11-09T00:13:05.554Z,15.05
2022-11-09T00:15:33.448Z,15.06
2022-11-09T00:18:02.858Z,15.06
2022-11-09T00:20:30.687Z,15.06
2022-11-09T00:22:58.552Z,15.06
2022-11-09T00:25:26.380Z,15.07
2022-11-09T00:27:54.449Z,15.04
2022-11-09T00:30:23.523Z,15.05
2022-11-09T00:32:51.355Z,15.05
2022-11-09T00:35:19.666Z,15.05
2022-11-09T00:37:47.479Z,15.07
2022-11-09T00:40:15.573Z,15.07
2022-11-09T00:42:43.267Z,15.07
2022-11-09T00:45:11.324Z,15.07
2022-11-09T00:47:40.455Z,15.09
2022-11-09T00:50:09.132Z,15.08
2022-11-09T00:52:36.806Z,15.09
2022-11-09T00:55:05.192Z,15.11
2022-11-09T00:57:33.099Z,15.10
2022-11-09T01:00:00.839Z,15.09
2022-11-09T01:02:28.517Z,15.09
2022-11-09T01:04:57.591Z,15.08
2022-11-09T01:07:25.297Z,15.10
2022-11-09T01:09:52.955Z,15.08
2022-11-09T01:12:20.728Z,15.07
2022-11-09T01:14:48.386Z,15.09
2022-11-09T01:17:16.097Z,15.09
2022-11-09T01:19:44.054Z,15.06
2022-11-09T01:22:13.122Z,15.09
2022-11-09T01:24:40.878Z,15.09
2022-11-09T01:27:08.573Z,15.08
2022-11-09T01:29:36.283Z,15.09
2022-11-09T01:32:04.517Z,15.09
2022-11-09T01:34:32.462Z,15.08
2022-11-09T01:37:00.213Z,15.06
2022-11-09T01:39:29.202Z,15.06
2022-11-09T01:41:56.881Z,15.07
2022-11-09T01:44:28.454Z,15.06
2022-11-09T01:46:58.871Z,15.07
2022-11-09T01:49:40.689Z,15.04
2022-11-09T01:52:11.418Z,15.03
2022-11-09T01:54:42.773Z,15.03
2022-11-09T01:57:12.931Z,15.01
2022-11-09T01:59:48.485Z,15.03
2022-11-09T02:02:16.834Z,15.02
2022-11-09T02:04:48.433Z,15.05
2022-11-09T02:07:16.352Z,15.05
2022-11-09T02:09:50.540Z,15.01
2022-11-09T02:12:19.381Z,15.05
2022-11-09T02:14:50.681Z,15.06
2022-11-09T02:17:19.566Z,15.02
2022-11-09T02:19:47.258Z,15.04
2022-11-09T02:22:16.512Z,15.03
2022-11-09T02:24:44.233Z,15.03
2022-11-09T02:27:11.888Z,15.05
2022-11-09T02:29:42.561Z,15.07
2022-11-09T02:32:14.673Z,15.10
2022-11-09T02:34:42.381Z,15.13
2022-11-09T02:37:10.159Z,15.14
2022-11-09T02:39:39.935Z,15.14
2022-11-09T02:42:11.485Z,15.13
2022-11-09T02:44:42.710Z,15.13
2022-11-09T02:47:10.551Z,15.11
2022-11-09T02:49:38.295Z,15.12
2022-11-09T02:52:05.978Z,15.11
2022-11-09T02:54:33.658Z,15.09
2022-11-09T02:57:02.686Z,15.09
2022-11-09T02:59:30.394Z,15.09
2022-11-09T03:01:58.135Z,15.10
2022-11-09T03:04:25.921Z,15.12
2022-11-09T03:06:53.732Z,15.11
2022-11-09T03:09:21.533Z,15.10
2022-11-09T03:11:49.537Z,15.10
2022-11-09T03:14:18.608Z,15.10
2022-11-09T03:16:50.186Z,15.07
2022-11-09T03:19:18.537Z,15.03
2022-11-09T03:21:46.255Z,14.99
2022-11-09T03:24:13.968Z,14.99
2022-11-09T03:26:41.686Z,14.96
2022-11-09T03:29:09.421Z,14.97
2022-11-09T03:31:39.677Z,14.98
2022-11-09T03:34:07.339Z,14.96
2022-11-09T03:36:35.037Z,14.96
2022-11-09T03:39:02.834Z,14.93
2022-11-09T03:41:30.531Z,14.93
2022-11-09T03:43:58.161Z,14.94
2022-11-09T03:46:25.882Z,14.96
2022-11-09T03:48:54.914Z,14.95
2022-11-09T03:51:22.614Z,14.93
2022-11-09T03:53:50.394Z,14.91
2022-11-09T03:56:18.111Z,14.86
2022-11-09T03:58:45.763Z,14.86
2022-11-09T04:01:13.723Z,14.85
2022-11-09T04:03:41.555Z,14.86
2022-11-09T04:06:10.751Z,14.86
2022-11-09T04:08:38.471Z,14.83
2022-11-09T04:11:06.179Z,14.87
2022-11-09T04:13:33.957Z,14.87
2022-11-09T04:16:01.686Z,14.83
2022-11-09T04:18:29.398Z,14.79
2022-11-09T04:20:59.053Z,14.80
2022-11-09T04:23:28.110Z,14.79
2022-11-09T04:25:55.803Z,14.79
2022-11-09T04:28:23.470Z,14.79
2022-11-09T04:30:51.240Z,14.77
2022-11-09T04:33:19.258Z,14.77
2022-11-09T04:35:47.216Z,14.77
2022-11-09T04:38:15.393Z,14.73
2022-11-09T04:40:44.440Z,14.73
2022-11-09T04:43:15.863Z,14.71
2022-11-09T04:45:44.208Z,14.74
2022-11-09T04:48:12.897Z,14.65
2022-11-09T04:50:40.645Z,14.70
2022-11-09T04:53:10.014Z,14.70
2022-11-09T04:55:38.179Z,14.74
2022-11-09T04:58:07.711Z,14.69
2022-11-09T05:00:35.919Z,14.66
2022-11-09T05:03:05.735Z,14.66
2022-11-09T05:05:34.354Z,14.66
2022-11-09T05:08:02.180Z,14.68
2022-11-09T05:10:30.294Z,14.70
2022-11-09T05:12:58.865Z,14.68
2022-11-09T05:15:28.549Z,14.63
2022-11-09T05:17:56.712Z,14.64
2022-11-09T05:20:25.308Z,14.62
2022-11-09T05:23:10.663Z,14.63
2022-11-09T05:25:38.373Z,14.62
2022-11-09T05:28:06.589Z,14.63
2022-11-09T05:30:37.962Z,14.59
2022-11-09T05:33:06.424Z,14.59
2022-11-09T05:35:34.509Z,14.62
2022-11-09T05:38:02.426Z,14.64
2022-11-09T05:40:30.178Z,14.60
2022-11-09T05:42:57.934Z,14.61
2022-11-09T05:45:43.375Z,14.63
2022-11-09T05:48:15.035Z,14.62
2022-11-09T05:50:43.435Z,14.67
2022-11-09T05:53:12.306Z,14.71
2022-11-09T05:55:40.631Z,14.66
2022-11-09T05:58:08.955Z,14.69
2022-11-09T06:00:38.936Z,14.71
2022-11-09T06:03:11.259Z,14.73
2022-11-09T06:05:42.107Z,14.72
2022-11-09T06:08:15.526Z,14.64
2022-11-09T06:10:43.797Z,14.57
2022-11-09T06:13:12.084Z,14.52
2022-11-09T06:15:39.984Z,14.52
2022-11-09T06:18:08.166Z,14.54
2022-11-09T06:20:36.343Z,14.54
2022-11-09T06:23:05.639Z,14.58
2022-11-09T06:25:34.134Z,14.56
2022-11-09T06:28:02.599Z,14.55
2022-11-09T06:30:30.876Z,14.52
2022-11-09T06:32:59.968Z,14.50
2022-11-09T06:35:27.941Z,14.50
2022-11-09T06:37:58.977Z,14.49
2022-11-09T06:40:29.208Z,14.48
2022-11-09T06:43:01.137Z,14.54
2022-11-09T06:45:30.357Z,14.48
2022-11-09T06:47:58.838Z,14.56
2022-11-09T06:50:27.983Z,14.50
2022-11-09T06:52:58.308Z,14.53
2022-11-09T06:55:26.281Z,14.53
2022-11-09T06:57:56.049Z,14.53
2022-11-09T07:00:24.208Z,14.56
2022-11-09T07:02:52.537Z,14.62
2022-11-09T07:05:20.976Z,14.61
2022-11-09T07:07:49.341Z,14.58
2022-11-09T07:10:17.903Z,14.59
2022-11-09T07:12:45.907Z,14.61
2022-11-09T07:15:15.061Z,14.56
2022-11-09T07:17:43.087Z,14.57
2022-11-09T07:20:14.610Z,14.57
2022-11-09T07:22:42.981Z,14.63
2022-11-09T07:25:16.128Z,14.61
2022-11-09T07:27:44.655Z,14.57
2022-11-09T07:30:12.973Z,14.56
2022-11-09T07:35:31.086Z,14.60
2022-11-09T07:38:01.235Z,14.65
2022-11-09T07:40:30.749Z,14.68
2022-11-09T07:42:59.554Z,14.69
2022-11-09T07:45:29.016Z,14.63
2022-11-09T07:47:59.654Z,14.59
2022-11-09T07:50:28.653Z,14.51
2022-11-09T07:52:56.924Z,14.60
2022-11-09T07:55:24.880Z,14.61
2022-11-09T07:57:56.436Z,14.60
2022-11-09T08:00:24.500Z,14.63
2022-11-09T08:02:53.283Z,14.57
2022-11-09T08:05:22.699Z,14.56
2022-11-09T08:07:55.591Z,14.47
2022-11-09T08:10:23.650Z,14.48
2022-11-09T08:12:55.900Z,14.51
2022-11-09T08:15:24.133Z,14.55
2022-11-09T08:17:52.178Z,14.55
2022-11-09T08:20:22.238Z,14.57
2022-11-09T08:22:50.045Z,14.56
2022-11-09T08:25:18.052Z,14.58
2022-11-09T08:27:45.845Z,14.55
2022-11-09T08:30:16.045Z,14.57
2022-11-09T08:32:45.301Z,14.54
2022-11-09T08:35:17.554Z,14.55
2022-11-09T08:37:47.630Z,14.57
2022-11-09T08:40:17.399Z,14.61
2022-11-09T08:42:45.164Z,14.60
2022-11-09T08:45:13.080Z,14.58
2022-11-09T08:47:41.408Z,14.56
2022-11-09T08:50:11.255Z,14.62
2022-11-09T08:52:39.462Z,14.65
2022-11-09T08:55:09.525Z,14.66
2022-11-09T08:57:37.374Z,14.71
2022-11-09T09:00:06.765Z,14.66
2022-11-09T09:02:34.586Z,14.70
2022-11-09T09:05:02.276Z,14.66
2022-11-09T09:07:30.053Z,14.64
2022-11-09T09:09:57.889Z,14.69
2022-11-09T09:12:26.964Z,14.64
2022-11-09T09:14:55.222Z,14.69
2022-11-09T09:17:23.066Z,14.65
2022-11-09T09:19:50.780Z,14.68
2022-11-09T09:22:18.641Z,14.65
2022-11-09T09:24:46.364Z,14.64
2022-11-09T09:27:14.241Z,14.62
2022-11-09T09:29:43.303Z,14.60
2022-11-09T09:32:11.085Z,14.63
2022-11-09T09:34:38.821Z,14.66
2022-11-09T09:37:06.597Z,14.72
2022-11-09T09:39:34.378Z,14.78
2022-11-09T09:42:05.657Z,14.72
2022-11-09T09:44:37.997Z,14.73
2022-11-09T09:47:13.614Z,14.75
2022-11-09T09:49:46.355Z,14.77
2022-11-09T09:52:22.737Z,14.68
2022-11-09T09:54:58.951Z,14.73
2022-11-09T09:57:29.426Z,14.76
2022-11-09T10:00:02.448Z,14.71
2022-11-09T10:02:35.358Z,14.63
2022-11-09T10:05:08.756Z,14.63
2022-11-09T10:07:42.118Z,14.73
2022-11-09T10:10:32.864Z,14.66
2022-11-09T10:13:27.308Z,14.63
2022-11-09T10:15:59.848Z,14.63
2022-11-09T10:18:41.930Z,14.71
2022-11-09T10:21:32.024Z,14.67
2022-11-09T10:24:20.956Z,14.69
2022-11-09T10:26:52.178Z,14.66
2022-11-09T10:29:24.094Z,14.65
2022-11-09T10:31:53.987Z,14.59
2022-11-09T10:34:29.162Z,14.61
2022-11-09T10:37:05.591Z,14.60
2022-11-09T10:39:41.917Z,14.64
2022-11-09T10:42:12.065Z,14.68
2022-11-09T10:44:39.827Z,14.72
2022-11-09T10:47:11.116Z,14.77
2022-11-09T10:49:41.125Z,14.80
2022-11-09T10:52:31.660Z,14.83
2022-11-09T10:55:22.718Z,14.85
2022-11-09T10:57:57.835Z,14.94
2022-11-09T11:00:25.847Z,14.95
2022-11-09T11:02:54.505Z,14.91
2022-11-09T11:05:32.759Z,14.93
2022-11-09T11:08:21.586Z,15.00
2022-11-09T11:10:58.515Z,15.05
2022-11-09T11:13:34.744Z,15.03
2022-11-09T11:16:02.636Z,14.97
2022-11-09T11:18:37.934Z,14.98
2022-11-09T11:21:18.396Z,14.98
2022-11-09T11:24:05.088Z,15.08
2022-11-09T11:26:38.844Z,15.07
2022-11-09T11:29:15.612Z,15.04
2022-11-09T11:31:43.310Z,15.11
2022-11-09T11:34:31.983Z,15.12
2022-11-09T11:37:18.364Z,15.13
2022-11-09T11:39:57.435Z,15.22
2022-11-09T11:42:47.539Z,15.20
2022-11-09T11:45:40.009Z,15.18
2022-11-09T11:48:51.584Z,15.24
2022-11-09T11:51:25.148Z,15.24
2022-11-09T11:54:07.363Z,15.26
2022-11-09T11:56:39.454Z,15.28
2022-11-09T11:59:36.130Z,15.31
2022-11-09T12:02:28.329Z,15.42
2022-11-09T12:05:32.386Z,15.44
2022-11-09T12:08:06.267Z,15.46
2022-11-09T12:10:47.250Z,15.46
2022-11-09T12:13:29.777Z,15.49
2022-11-09T12:16:04.601Z,15.46
2022-11-09T12:18:44.703Z,15.49
2022-11-09T12:21:22.349Z,15.61
2022-11-09T12:24:07.729Z,15.77
2022-11-09T12:27:04.717Z,15.85
2022-11-09T12:29:44.637Z,15.98
2022-11-09T12:32:23.881Z,16.18
2022-11-09T12:34:57.982Z,16.17
2022-11-09T12:37:30.173Z,16.22
2022-11-09T12:40:05.957Z,16.18
2022-11-09T12:42:39.969Z,16.31
2022-11-09T12:45:27.324Z,16.55
2022-11-09T12:47:59.384Z,16.71
2022-11-09T12:50:29.021Z,16.75
2022-11-09T12:52:57.267Z,16.64
2022-11-09T12:55:34.453Z,16.59
2022-11-09T12:58:03.915Z,16.61
2022-11-09T13:00:50.234Z,16.53
2022-11-09T13:03:25.599Z,16.46
2022-11-09T13:06:16.507Z,16.36
2022-11-09T13:09:00.746Z,16.23
2022-11-09T13:11:37.643Z,16.14
2022-11-09T13:14:33.793Z,16.02
2022-11-09T13:17:03.723Z,15.98
2022-11-09T13:19:51.196Z,15.99
2022-11-09T13:22:56.178Z,16.00
2022-11-09T13:25:53.767Z,15.96
2022-11-09T13:28:58.375Z,15.96
2022-11-09T13:32:02.310Z,15.90
2022-11-09T13:34:41.195Z,15.84
2022-11-09T13:37:49.171Z,15.78
2022-11-09T13:40:40.155Z,15.75
2022-11-09T13:43:17.531Z,15.69
2022-11-09T13:45:47.009Z,15.66
2022-11-09T13:48:31.421Z,15.69
2022-11-09T13:51:01.559Z,15.71
2022-11-09T13:53:32.070Z,15.73
2022-11-09T13:56:00.103Z,15.72
2022-11-09T13:58:34.419Z,15.72
2022-11-09T14:01:02.248Z,15.77
2022-11-09T14:03:33.779Z,15.76
2022-11-09T14:06:03.575Z,15.71
2022-11-09T14:08:40.243Z,15.66
2022-11-09T14:11:35.840Z,15.64
2022-11-09T14:14:18.278Z,15.64
2022-11-09T14:16:53.638Z,15.65
2022-11-09T14:19:31.051Z,15.63
2022-11-09T14:21:58.945Z,15.58
2022-11-09T14:24:30.820Z,15.56
2022-11-09T14:27:04.156Z,15.52
2022-11-09T14:29:33.039Z,15.49
2022-11-09T14:32:02.652Z,15.45
2022-11-09T14:34:31.764Z,15.44
2022-11-09T14:37:03.191Z,15.43
2022-11-09T14:39:34.989Z,15.44
2022-11-09T14:42:02.787Z,15.40
2022-11-09T14:44:35.608Z,15.38
2022-11-09T14:47:04.548Z,15.38
2022-11-09T14:49:33.789Z,15.32
2022-11-09T14:52:02.245Z,15.29
2022-11-09T14:54:30.885Z,15.30
2022-11-09T14:56:58.959Z,15.29
2022-11-09T14:59:31.508Z,15.29
2022-11-09T15:02:02.164Z,15.29
2022-11-09T15:04:30.109Z,15.24
2022-11-09T15:07:03.008Z,15.20
2022-11-09T15:09:35.717Z,15.19
2022-11-09T15:12:03.970Z,15.21
2022-11-09T15:14:34.396Z,15.17
2022-11-09T15:17:12.876Z,15.12
2022-11-09T15:19:50.218Z,15.09
2022-11-09T15:22:48.031Z,15.07
2022-11-09T15:25:31.973Z,15.07
2022-11-09T15:28:21.832Z,15.06
2022-11-09T15:31:07.821Z,15.05
2022-11-09T15:33:46.710Z,14.98
2022-11-09T15:36:30.821Z,14.98
2022-11-09T15:39:12.718Z,14.92
2022-11-09T15:41:40.410Z,14.87
2022-11-09T15:44:08.961Z,14.85
2022-11-09T15:46:41.003Z,14.85
2022-11-09T15:49:16.549Z,14.86
2022-11-09T15:51:45.548Z,14.86
2022-11-09T15:54:14.788Z,14.85
2022-11-09T15:56:42.944Z,14.76
2022-11-09T15:59:18.796Z,14.72
2022-11-09T16:01:46.509Z,14.65
2022-11-09T16:04:14.566Z,14.60
2022-11-09T16:06:46.373Z,14.58
2022-11-09T16:09:17.753Z,14.53
2022-11-09T16:11:45.385Z,14.50
2022-11-09T16:14:14.790Z,14.47
2022-11-09T16:16:42.551Z,14.49
2022-11-09T16:19:14.651Z,14.45
2022-11-09T16:21:43.222Z,14.43
2022-11-09T16:24:10.910Z,14.46
2022-11-09T16:26:39.952Z,14.45
2022-11-09T16:29:07.638Z,14.44
2022-11-09T16:31:50.960Z,14.38
2022-11-09T16:34:19.421Z,14.38
2022-11-09T16:36:52.470Z,14.38
2022-11-09T16:39:26.797Z,14.35
2022-11-09T16:41:56.544Z,14.34
2022-11-09T16:44:25.226Z,14.35
2022-11-09T16:46:53.037Z,14.30
2022-11-09T16:49:20.860Z,14.36
2022-11-09T16:51:48.636Z,14.34
2022-11-09T16:54:16.450Z,14.40
2022-11-09T16:56:44.617Z,14.42
2022-11-09T16:59:13.837Z,14.40
2022-11-09T17:01:41.666Z,14.38
2022-11-09T17:04:09.520Z,14.35
2022-11-09T17:06:37.488Z,14.41
2022-11-09T17:09:05.380Z,14.43
2022-11-09T17:11:33.485Z,14.40
2022-11-09T17:14:01.901Z,14.47
2022-11-09T17:16:31.069Z,14.56
2022-11-09T17:18:59.953Z,14.55
2022-11-09T17:21:29.633Z,14.61
2022-11-09T17:23:58.053Z,14.64
2022-11-09T17:26:26.570Z,14.61
2022-11-09T17:28:54.327Z,14.61
2022-11-09T17:31:24.335Z,14.67
2022-11-09T17:33:58.342Z,14.70
2022-11-09T17:36:56.956Z,14.68
2022-11-09T17:39:16.414Z,14.54
2022-11-09T17:41:44.728Z,14.48
2022-11-09T17:44:12.629Z,14.47
2022-11-09T17:46:40.485Z,14.43
2022-11-09T17:49:10.630Z,14.34
2022-11-09T17:51:38.969Z,14.35
2022-11-09T17:54:06.967Z,14.35
2022-11-09T17:56:38.118Z,14.31
2022-11-09T17:59:06.578Z,14.28
2022-11-09T18:01:40.809Z,14.23
2022-11-09T18:04:14.836Z,14.26
2022-11-09T18:06:43.107Z,14.21
2022-11-09T18:09:39.641Z,14.21
2022-11-09T18:11:59.618Z,14.24
2022-11-09T18:14:27.524Z,14.18
2022-11-09T18:16:59.606Z,14.19
2022-11-09T18:19:29.042Z,14.19
2022-11-09T18:21:56.931Z,14.08
2022-11-09T18:24:24.783Z,14.11
2022-11-09T18:26:52.665Z,14.11
2022-11-09T18:29:20.694Z,14.14
2022-11-09T18:31:49.477Z,14.11
2022-11-09T18:34:17.373Z,14.17
2022-11-09T18:36:46.522Z,14.16
2022-11-09T18:39:16.015Z,14.13
2022-11-09T18:41:44.054Z,14.16
2022-11-09T18:44:12.145Z,14.19
2022-11-09T18:46:39.967Z,14.12
2022-11-09T18:49:13.903Z,14.09
2022-11-09T18:51:44.844Z,13.99
2022-11-09T18:54:14.209Z,14.02
2022-11-09T18:56:43.754Z,13.97
2022-11-09T18:59:13.021Z,14.01
2022-11-09T19:01:40.913Z,13.97
2022-11-09T19:04:10.796Z,13.95
2022-11-09T19:06:38.554Z,13.82
2022-11-09T19:09:24.881Z,13.81
2022-11-09T19:11:53.945Z,13.79
2022-11-09T19:14:21.815Z,13.85
2022-11-09T19:16:49.543Z,13.81
2022-11-09T19:19:17.600Z,13.85
2022-11-09T19:21:48.983Z,13.82
2022-11-09T19:24:18.754Z,13.83
2022-11-09T19:26:46.783Z,13.81
2022-11-09T19:29:16.737Z,13.80
2022-11-09T19:31:48.486Z,13.76
2022-11-09T19:34:18.100Z,13.73
2022-11-09T19:36:46.726Z,13.66
2022-11-09T19:39:15.702Z,13.59
2022-11-09T19:41:44.321Z,13.59
2022-11-09T19:44:14.431Z,13.59
2022-11-09T19:46:43.702Z,13.61
2022-11-09T19:49:11.437Z,13.55
2022-11-09T19:51:40.227Z,13.55
2022-11-09T19:54:08.283Z,13.54
2022-11-09T19:56:37.171Z,13.62
2022-11-09T19:59:05.679Z,13.61
2022-11-09T20:01:33.639Z,13.54
2022-11-09T20:04:07.684Z,13.58
2022-11-09T20:06:39.326Z,13.57
2022-11-09T20:09:07.394Z,13.57
2022-11-09T20:11:52.741Z,13.65
2022-11-09T20:14:21.107Z,13.70
2022-11-09T20:16:49.646Z,13.77
2022-11-09T20:19:18.823Z,13.69
2022-11-09T20:21:46.836Z,13.75
2022-11-09T20:24:17.188Z,13.81
2022-11-09T20:26:45.057Z,13.83
2022-11-09T20:29:12.846Z,13.82
2022-11-09T20:31:40.630Z,13.81
2022-11-09T20:34:11.574Z,13.81
2022-11-09T20:36:40.912Z,13.87
2022-11-09T20:39:08.853Z,13.78
2022-11-09T20:41:36.704Z,13.74
2022-11-09T20:44:04.847Z,13.69
2022-11-09T20:46:35.997Z,13.61
2022-11-09T20:49:07.121Z,13.58
2022-11-09T20:51:35.517Z,13.57
2022-11-09T20:54:07.578Z,13.52
2022-11-09T20:56:37.010Z,13.57
2022-11-09T20:59:05.268Z,13.61
2022-11-09T21:01:33.539Z,13.60
2022-11-09T21:04:01.533Z,13.59
2022-11-09T21:06:29.756Z,13.57
2022-11-09T21:08:58.185Z,13.58
2022-11-09T21:11:28.719Z,13.60
2022-11-09T21:13:56.742Z,13.56
2022-11-09T21:16:25.094Z,13.54
2022-11-09T21:18:53.185Z,13.54
2022-11-09T21:21:22.836Z,13.59
2022-11-09T21:24:08.497Z,13.58
2022-11-09T21:26:55.219Z,13.57
2022-11-09T21:29:42.946Z,13.51
2022-11-09T21:32:12.015Z,13.55
2022-11-09T21:34:40.104Z,13.45
2022-11-09T21:37:08.246Z,13.48
2022-11-09T21:39:36.499Z,13.54
2022-11-09T21:42:06.138Z,13.46
2022-11-09T21:44:35.573Z,13.49
2022-11-09T21:47:03.958Z,13.52
2022-11-09T21:49:31.942Z,13.48
2022-11-09T21:52:00.327Z,13.49
2022-11-09T21:54:28.838Z,13.44
2022-11-09T21:56:57.482Z,13.44
2022-11-09T21:59:26.614Z,13.52
2022-11-09T22:01:54.449Z,13.44
2022-11-09T22:04:22.299Z,13.44
2022-11-09T22:06:50.137Z,13.40
2022-11-09T22:09:19.539Z,13.45
2022-11-09T22:12:05.208Z,13.34
2022-11-09T22:14:52.341Z,13.26
2022-11-09T22:17:20.271Z,13.25
2022-11-09T22:20:14.843Z,13.19
2022-11-09T22:22:43.191Z,13.24
2022-11-09T22:25:11.057Z,13.24
2022-11-09T22:27:38.855Z,13.28
2022-11-09T22:30:09.376Z,13.21
2022-11-09T22:32:37.162Z,13.27
2022-11-09T22:35:05.368Z,13.16
2022-11-09T22:37:33.110Z,13.23
2022-11-09T22:40:00.829Z,13.23
2022-11-09T22:42:28.564Z,13.28
2022-11-09T22:44:56.381Z,13.25
2022-11-09T22:47:25.706Z,13.30
2022-11-09T22:49:53.528Z,13.35
2022-11-09T22:52:21.251Z,13.33
2022-11-09T22:54:49.038Z,13.23
2022-11-09T22:57:16.949Z,13.20
2022-11-09T22:59:44.713Z,13.27
2022-11-09T23:02:13.690Z,13.28
2022-11-09T23:04:42.797Z,13.26
2022-11-09T23:07:10.571Z,13.31
2022-11-09T23:09:38.352Z,13.30
2022-11-09T23:12:06.475Z,13.33
2022-11-09T23:14:51.817Z,13.34
2022-11-09T23:17:33.485Z,13.29
2022-11-09T23:20:02.917Z,13.27
2022-11-09T23:22:30.873Z,13.22
2022-11-09T23:25:16.562Z,13.21
2022-11-09T23:27:44.329Z,13.17
2022-11-09T23:30:14.768Z,13.17
2022-11-09T23:32:46.840Z,13.20
2022-11-09T23:35:16.464Z,13.15
2022-11-09T23:37:44.290Z,13.13
2022-11-09T23:40:13.195Z,13.03
2022-11-09T23:42:43.399Z,13.10
2022-11-09T23:45:11.335Z,13.14
2022-11-09T23:47:39.035Z,13.13
2022-11-09T23:50:07.673Z,13.13
2022-11-09T23:52:36.749Z,13.09
2022-11-09T23:55:04.854Z,13.07
2022-11-09T23:57:32.523Z,13.14
